createdAt,value
2023-04-22T00:01:24.543Z,73.57
2023-04-22T00:03:51.852Z,73.29
2023-04-22T00:06:18.894Z,73.60
2023-04-22T00:08:45.523Z,73.85
2023-04-22T00:11:11.974Z,73.96
2023-04-22T00:13:38.468Z,74.59
2023-04-22T00:16:05.291Z,74.23
2023-04-22T00:18:35.040Z,74.50
2023-04-22T00:21:01.861Z,74.04
2023-04-22T00:23:28.362Z,74.31
2023-04-22T00:25:54.949Z,74.32
2023-04-22T00:28:21.380Z,75.00
2023-04-22T00:30:47.893Z,74.85
2023-04-22T00:33:14.322Z,74.99
2023-04-22T00:35:41.629Z,75.34
2023-04-22T00:38:08.256Z,74.77
2023-04-22T00:40:34.768Z,74.01
2023-04-22T00:43:02.716Z,74.93
2023-04-22T00:45:30.792Z,75.19
2023-04-22T00:47:57.864Z,75.47
2023-04-22T00:50:24.436Z,75.80
2023-04-22T00:52:51.177Z,76.45
2023-04-22T00:55:18.158Z,77.08
2023-04-22T00:57:44.626Z,76.61
2023-04-22T01:00:12.064Z,77.23
2023-04-22T01:02:38.942Z,77.45
2023-04-22T01:08:52.229Z,79.26
2023-04-22T01:11:18.912Z,80.66
2023-04-22T01:13:45.580Z,80.50
2023-04-22T01:16:13.062Z,80.61
2023-04-22T01:18:39.621Z,81.97
2023-04-22T01:21:07.333Z,81.47
2023-04-22T01:23:33.996Z,82.54
2023-04-22T01:26:00.646Z,83.36
2023-04-22T01:28:27.648Z,84.50
2023-04-22T01:30:54.379Z,85.08
2023-04-22T01:33:20.982Z,85.99
2023-04-22T01:35:47.971Z,87.81
2023-04-22T01:38:14.431Z,87.75
2023-04-22T01:40:41.042Z,87.90
2023-04-22T01:43:07.661Z,89.35
2023-04-22T01:45:34.183Z,90.04
2023-04-22T01:48:00.914Z,90.31
2023-04-22T01:50:27.586Z,91.00
2023-04-22T01:52:54.114Z,92.06
2023-04-22T01:55:20.710Z,93.93
2023-04-22T01:57:47.203Z,93.45
2023-04-22T02:00:13.980Z,95.25
2023-04-22T02:02:41.020Z,96.45
2023-04-22T02:05:08.486Z,97.74
2023-04-22T02:07:36.382Z,97.31
2023-04-22T02:10:05.000Z,97.20
2023-04-22T02:12:32.356Z,96.96
2023-04-22T02:14:59.037Z,98.61
2023-04-22T02:17:25.529Z,97.58
2023-04-22T02:19:52.006Z,97.59
2023-04-22T02:22:19.586Z,98.48
2023-04-22T02:24:46.435Z,98.50
2023-04-22T02:27:12.964Z,99.90
2023-04-22T02:29:39.795Z,98.78
2023-04-22T02:32:06.444Z,99.04
2023-04-22T02:34:33.040Z,100.00
2023-04-22T02:36:59.451Z,100.00
2023-04-22T02:39:25.926Z,100.00
2023-04-22T02:41:52.520Z,100.00
2023-04-22T02:44:19.081Z,100.00
2023-04-22T02:46:45.672Z,100.00
2023-04-22T02:49:12.183Z,100.00
2023-04-22T02:51:39.444Z,100.00
2023-04-22T02:54:06.132Z,100.00
2023-04-22T02:56:32.593Z,100.00
2023-04-22T02:58:59.071Z,100.00
2023-04-22T03:01:25.746Z,100.00
2023-04-22T03:03:52.542Z,100.00
2023-04-22T03:06:19.196Z,100.00
2023-04-22T03:08:45.645Z,100.00
2023-04-22T03:11:13.837Z,100.00
2023-04-22T03:13:40.627Z,100.00
2023-04-22T03:16:07.492Z,100.00
2023-04-22T03:18:34.003Z,100.00
2023-04-22T03:21:00.983Z,100.00
2023-04-22T03:23:27.432Z,100.00
2023-04-22T03:25:53.885Z,100.00
2023-04-22T03:28:20.420Z,100.00
2023-04-22T03:30:47.368Z,100.00
2023-04-22T03:33:13.911Z,100.00
2023-04-22T03:35:40.376Z,100.00
2023-04-22T03:38:06.861Z,100.00
2023-04-22T03:40:33.350Z,100.00
2023-04-22T03:42:59.810Z,100.00
2023-04-22T03:45:26.848Z,100.00
2023-04-22T03:47:53.358Z,100.00
2023-04-22T03:50:19.829Z,100.00
2023-04-22T03:52:46.339Z,100.00
2023-04-22T03:55:12.898Z,100.00
2023-04-22T03:57:39.345Z,100.00
2023-04-22T04:00:06.472Z,100.00
2023-04-22T04:02:33.148Z,100.00
2023-04-22T04:05:00.142Z,100.00
2023-04-22T04:07:26.886Z,100.00
2023-04-22T04:09:53.466Z,100.00
2023-04-22T04:12:19.903Z,100.00
2023-04-22T04:14:46.333Z,100.00
2023-04-22T04:17:14.178Z,100.00
2023-04-22T04:19:41.050Z,100.00
2023-04-22T04:22:07.896Z,100.00
2023-04-22T04:24:36.569Z,100.00
2023-04-22T04:27:03.213Z,100.00
2023-04-22T04:29:29.681Z,100.00
2023-04-22T04:31:56.112Z,100.00
2023-04-22T04:34:22.900Z,100.00
2023-04-22T04:36:49.772Z,100.00
2023-04-22T04:39:18.883Z,100.00
2023-04-22T04:41:45.359Z,100.00
2023-04-22T04:44:12.203Z,100.00
2023-04-22T04:46:38.769Z,100.00
2023-04-22T04:49:05.285Z,100.00
2023-04-22T04:51:34.696Z,100.00
2023-04-22T04:54:01.393Z,100.00
2023-04-22T04:56:27.883Z,100.00
2023-04-22T04:58:54.317Z,100.00
2023-04-22T05:01:21.019Z,100.00
2023-04-22T05:03:47.866Z,100.00
2023-04-22T05:06:14.521Z,100.00
2023-04-22T05:08:41.063Z,100.00
2023-04-22T05:11:07.503Z,100.00
2023-04-22T05:13:34.220Z,100.00
2023-04-22T05:16:00.848Z,100.00
2023-04-22T05:18:27.457Z,100.00
2023-04-22T05:20:53.933Z,100.00
2023-04-22T05:23:20.596Z,100.00
2023-04-22T05:25:47.070Z,100.00
2023-04-22T05:28:13.504Z,100.00
2023-04-22T05:30:40.016Z,100.00
2023-04-22T05:33:08.414Z,100.00
2023-04-22T05:35:35.611Z,100.00
2023-04-22T05:38:03.118Z,100.00
2023-04-22T05:40:29.528Z,99.47
2023-04-22T05:42:57.295Z,96.38
2023-04-22T05:45:23.806Z,95.54
2023-04-22T05:47:50.525Z,93.98
2023-04-22T05:50:17.102Z,92.84
2023-04-22T05:52:43.664Z,91.57
2023-04-22T05:55:10.202Z,89.49
2023-04-22T05:57:36.687Z,86.45
2023-04-22T06:00:04.832Z,85.24
2023-04-22T06:02:31.467Z,89.96
2023-04-22T06:04:58.216Z,86.92
2023-04-22T06:07:25.187Z,86.69
2023-04-22T06:09:59.409Z,78.04
2023-04-22T06:12:30.395Z,74.01
2023-04-22T06:14:56.885Z,72.75
2023-04-22T06:17:23.393Z,70.09
2023-04-22T06:19:49.864Z,71.51
2023-04-22T06:22:16.299Z,71.24
2023-04-22T06:24:42.925Z,73.77
2023-04-22T06:27:09.419Z,68.12
2023-04-22T06:29:35.962Z,67.78
2023-04-22T06:32:03.556Z,65.16
2023-04-22T06:34:30.119Z,64.45
2023-04-22T06:36:57.074Z,63.19
2023-04-22T06:39:23.612Z,63.16
2023-04-22T06:41:50.192Z,61.92
2023-04-22T06:44:16.657Z,59.99
2023-04-22T06:46:43.167Z,59.53
2023-04-22T06:49:09.724Z,59.52
2023-04-22T06:51:36.374Z,59.06
2023-04-22T06:54:02.903Z,61.29
2023-04-22T06:56:29.447Z,57.04
2023-04-22T06:58:55.951Z,57.16
2023-04-22T07:01:22.426Z,55.85
2023-04-22T07:03:49.025Z,54.97
2023-04-22T07:06:15.928Z,54.46
2023-04-22T07:08:42.587Z,54.52
2023-04-22T07:11:11.871Z,56.56
2023-04-22T07:13:39.609Z,59.01
2023-04-22T07:16:06.361Z,58.44
2023-04-22T07:18:33.084Z,58.47
2023-04-22T07:20:59.603Z,57.57
2023-04-22T07:23:26.066Z,60.08
2023-04-22T07:25:52.678Z,56.58
2023-04-22T07:28:19.277Z,53.97
2023-04-22T07:30:46.157Z,52.38
2023-04-22T07:33:12.792Z,53.44
2023-04-22T07:35:39.251Z,56.06
2023-04-22T07:38:07.270Z,53.35
2023-04-22T07:40:34.455Z,53.64
2023-04-22T07:43:01.344Z,52.13
2023-04-22T07:45:27.943Z,50.19
2023-04-22T07:47:54.576Z,50.20
2023-04-22T07:50:21.131Z,50.09
2023-04-22T07:52:47.643Z,52.04
2023-04-22T07:55:14.136Z,49.64
2023-04-22T07:57:40.717Z,48.55
2023-04-22T08:00:08.164Z,47.81
2023-04-22T08:02:35.000Z,47.86
2023-04-22T08:05:01.809Z,47.87
2023-04-22T08:07:33.076Z,50.90
2023-04-22T08:10:00.370Z,49.98
2023-04-22T08:12:26.917Z,48.66
2023-04-22T08:14:54.084Z,49.14
2023-04-22T08:17:22.100Z,51.00
2023-04-22T08:19:49.262Z,48.27
2023-04-22T08:22:17.737Z,46.89
2023-04-22T08:24:44.491Z,48.29
2023-04-22T08:27:11.098Z,47.81
2023-04-22T08:29:38.021Z,47.21
2023-04-22T08:32:04.894Z,46.38
2023-04-22T08:34:31.738Z,45.66
2023-04-22T08:36:58.287Z,46.16
2023-04-22T08:39:24.798Z,44.78
2023-04-22T08:41:51.637Z,46.43
2023-04-22T08:44:19.731Z,47.94
2023-04-22T08:46:48.952Z,48.14
2023-04-22T08:49:16.176Z,46.29
2023-04-22T08:51:43.866Z,47.40
2023-04-22T08:54:11.477Z,44.36
2023-04-22T08:56:42.261Z,44.22
2023-04-22T08:59:11.809Z,43.30
2023-04-22T09:01:42.188Z,42.57
2023-04-22T09:04:11.259Z,43.69
2023-04-22T09:06:38.811Z,42.32
2023-04-22T09:09:05.669Z,42.48
2023-04-22T09:11:33.421Z,40.73
2023-04-22T09:13:59.988Z,41.09
2023-04-22T09:16:26.499Z,41.30
2023-04-22T09:18:52.994Z,41.98
2023-04-22T09:21:19.804Z,40.57
2023-04-22T09:23:54.762Z,41.54
2023-04-22T09:26:23.445Z,39.95
2023-04-22T09:28:56.422Z,39.62
2023-04-22T09:31:23.410Z,39.07
2023-04-22T09:33:58.772Z,38.30
2023-04-22T09:36:30.328Z,39.64
2023-04-22T09:39:02.102Z,40.90
2023-04-22T09:41:34.038Z,38.54
2023-04-22T09:44:03.090Z,38.51
2023-04-22T09:46:31.604Z,37.23
2023-04-22T09:48:59.651Z,36.86
2023-04-22T09:51:29.000Z,36.82
2023-04-22T09:54:06.211Z,36.15
2023-04-22T09:56:49.372Z,35.17
2023-04-22T09:59:28.221Z,39.14
2023-04-22T10:02:07.155Z,36.85
2023-04-22T10:04:34.625Z,36.12
2023-04-22T10:07:02.717Z,35.57
2023-04-22T10:09:29.473Z,38.48
2023-04-22T10:12:00.066Z,35.44
2023-04-22T10:14:26.997Z,34.60
2023-04-22T10:17:03.272Z,34.18
2023-04-22T10:19:33.483Z,33.99
2023-04-22T10:22:03.924Z,34.65
2023-04-22T10:24:36.534Z,35.48
2023-04-22T10:27:10.634Z,37.04
2023-04-22T10:29:39.600Z,37.32
2023-04-22T10:32:25.379Z,36.04
2023-04-22T10:35:08.774Z,35.82
2023-04-22T10:37:35.785Z,34.50
2023-04-22T10:40:10.505Z,33.52
2023-04-22T10:42:40.185Z,33.28
2023-04-22T10:45:07.530Z,33.72
2023-04-22T10:47:36.816Z,31.86
2023-04-22T10:50:18.486Z,33.59
2023-04-22T10:53:03.304Z,37.82
2023-04-22T10:55:50.802Z,36.32
2023-04-22T10:58:21.996Z,34.60
2023-04-22T11:00:54.409Z,35.54
2023-04-22T11:03:27.796Z,35.98
2023-04-22T11:06:17.712Z,36.95
2023-04-22T11:08:48.404Z,38.16
2023-04-22T11:11:17.661Z,37.00
2023-04-22T11:13:44.408Z,36.33
2023-04-22T11:16:11.357Z,35.62
2023-04-22T11:18:38.828Z,35.84
2023-04-22T11:21:08.373Z,34.65
2023-04-22T11:23:36.328Z,34.51
2023-04-22T11:26:05.818Z,34.44
2023-04-22T11:28:32.992Z,33.90
2023-04-22T11:31:07.788Z,33.83
2023-04-22T11:33:35.201Z,32.64
2023-04-22T11:36:01.857Z,33.17
2023-04-22T11:38:28.583Z,33.47
2023-04-22T11:40:57.739Z,33.42
2023-04-22T11:43:24.239Z,31.67
2023-04-22T11:45:50.809Z,31.09
2023-04-22T11:48:17.387Z,33.36
2023-04-22T11:50:44.834Z,30.47
2023-04-22T11:53:19.039Z,29.90
2023-04-22T11:55:47.874Z,32.35
2023-04-22T11:58:38.932Z,30.93
2023-04-22T12:01:05.843Z,31.40
2023-04-22T12:03:34.184Z,30.59
2023-04-22T12:06:04.053Z,34.16
2023-04-22T12:08:35.635Z,34.10
2023-04-22T12:11:12.454Z,33.64
2023-04-22T12:13:39.073Z,33.47
2023-04-22T12:16:09.724Z,33.89
2023-04-22T12:18:39.658Z,33.86
2023-04-22T12:21:13.635Z,33.52
2023-04-22T12:23:54.563Z,33.50
2023-04-22T12:26:26.207Z,32.35
2023-04-22T12:28:54.607Z,32.74
2023-04-22T12:31:21.943Z,32.26
2023-04-22T12:33:50.347Z,33.53
2023-04-22T12:36:18.418Z,33.72
2023-04-22T12:38:44.941Z,33.36
2023-04-22T12:41:11.430Z,33.06
2023-04-22T12:43:39.330Z,33.83
2023-04-22T12:46:07.920Z,35.14
2023-04-22T12:48:36.147Z,34.10
2023-04-22T12:51:03.753Z,32.85
2023-04-22T12:53:30.704Z,34.26
2023-04-22T12:55:57.317Z,32.88
2023-04-22T12:58:24.612Z,32.90
2023-04-22T13:00:51.023Z,33.66
2023-04-22T13:03:17.659Z,34.06
2023-04-22T13:05:45.541Z,33.95
2023-04-22T13:08:12.049Z,33.61
2023-04-22T13:10:38.480Z,33.79
2023-04-22T13:13:17.692Z,35.43
2023-04-22T13:15:47.016Z,35.67
2023-04-22T13:18:13.963Z,38.30
2023-04-22T13:20:41.746Z,37.33
2023-04-22T13:23:09.714Z,37.21
2023-04-22T13:25:36.689Z,35.52
2023-04-22T13:28:03.320Z,35.86
2023-04-22T13:30:29.803Z,38.22
2023-04-22T13:32:56.333Z,36.18
2023-04-22T13:35:22.897Z,36.47
2023-04-22T13:37:49.370Z,37.20
2023-04-22T13:40:16.215Z,37.12
2023-04-22T13:42:44.322Z,37.47
2023-04-22T13:45:10.878Z,36.19
2023-04-22T13:47:37.708Z,36.29
2023-04-22T13:50:05.957Z,36.46
2023-04-22T13:52:32.450Z,36.23
2023-04-22T13:54:58.984Z,37.76
2023-04-22T13:57:25.929Z,36.31
2023-04-22T13:59:52.402Z,36.03
2023-04-22T14:02:18.907Z,36.50
2023-04-22T14:04:45.531Z,36.21
2023-04-22T14:07:12.580Z,35.84
2023-04-22T14:09:39.426Z,37.89
2023-04-22T14:12:07.828Z,36.65
2023-04-22T14:14:34.549Z,36.64
2023-04-22T14:17:01.288Z,39.37
2023-04-22T14:19:30.338Z,36.25
2023-04-22T14:21:57.135Z,37.51
2023-04-22T14:24:24.416Z,37.79
2023-04-22T14:26:52.477Z,35.62
2023-04-22T14:29:19.120Z,36.86
2023-04-22T14:31:45.721Z,38.16
2023-04-22T14:34:12.199Z,35.49
2023-04-22T14:36:38.713Z,36.66
2023-04-22T14:39:05.165Z,37.19
2023-04-22T14:41:31.673Z,36.17
2023-04-22T14:43:58.141Z,36.21
2023-04-22T14:46:24.652Z,36.80
2023-04-22T14:48:51.380Z,39.03
2023-04-22T14:51:17.962Z,38.49
2023-04-22T14:53:44.593Z,38.60
2023-04-22T14:56:11.988Z,36.54
2023-04-22T14:58:38.574Z,36.26
2023-04-22T15:01:07.515Z,36.54
2023-04-22T15:03:35.825Z,36.22
2023-04-22T15:06:02.707Z,35.10
2023-04-22T15:08:29.192Z,35.18
2023-04-22T15:10:55.777Z,35.13
2023-04-22T15:13:22.313Z,34.76
2023-04-22T15:15:48.813Z,34.64
2023-04-22T15:18:15.398Z,34.40
2023-04-22T15:20:41.884Z,34.87
2023-04-22T15:23:08.432Z,34.91
2023-04-22T15:25:35.850Z,34.91
2023-04-22T15:28:02.957Z,35.35
2023-04-22T15:30:29.525Z,35.08
2023-04-22T15:32:56.151Z,35.08
2023-04-22T15:35:23.887Z,35.09
2023-04-22T15:37:50.480Z,35.17
2023-04-22T15:40:17.012Z,34.66
2023-04-22T15:42:43.598Z,34.81
2023-04-22T15:45:10.502Z,34.60
2023-04-22T15:47:37.375Z,33.98
2023-04-22T15:50:08.770Z,34.12
2023-04-22T15:52:38.096Z,34.45
2023-04-22T15:55:06.023Z,34.28
2023-04-22T15:57:34.986Z,34.15
2023-04-22T16:00:11.206Z,33.96
2023-04-22T16:02:39.232Z,34.09
2023-04-22T16:05:06.302Z,34.26
2023-04-22T16:07:32.923Z,34.29
2023-04-22T16:09:59.350Z,34.58
2023-04-22T16:12:25.883Z,34.71
2023-04-22T16:14:52.461Z,34.58
2023-04-22T16:17:20.101Z,34.59
2023-04-22T16:19:46.657Z,34.95
2023-04-22T16:22:13.249Z,34.95
2023-04-22T16:24:41.731Z,34.63
2023-04-22T16:27:09.908Z,34.61
2023-04-22T16:29:36.349Z,34.96
2023-04-22T16:32:03.646Z,34.67
2023-04-22T16:34:30.860Z,35.22
2023-04-22T16:36:57.450Z,34.99
2023-04-22T16:39:23.910Z,34.96
2023-04-22T16:41:50.381Z,34.65
2023-04-22T16:44:17.309Z,34.38
2023-04-22T16:46:43.775Z,34.49
2023-04-22T16:49:11.622Z,34.23
2023-04-22T16:51:38.134Z,34.65
2023-04-22T16:54:04.659Z,34.89
2023-04-22T16:56:31.160Z,35.27
2023-04-22T16:58:57.628Z,35.08
2023-04-22T17:01:24.152Z,35.44
2023-04-22T17:03:50.873Z,35.59
2023-04-22T17:06:17.788Z,35.82
2023-04-22T17:08:44.230Z,35.76
2023-04-22T17:11:11.864Z,35.86
2023-04-22T17:13:38.383Z,36.37
2023-04-22T17:16:05.091Z,36.98
2023-04-22T17:18:31.638Z,36.97
2023-04-22T17:20:58.128Z,37.37
2023-04-22T17:23:24.682Z,37.39
2023-04-22T17:25:51.163Z,37.65
2023-04-22T17:28:17.692Z,37.33
2023-04-22T17:30:44.139Z,37.80
2023-04-22T17:33:10.774Z,38.34
2023-04-22T17:35:37.277Z,38.17
2023-04-22T17:38:03.791Z,38.32
2023-04-22T17:40:30.280Z,38.62
2023-04-22T17:42:56.684Z,38.71
2023-04-22T17:45:23.158Z,39.10
2023-04-22T17:47:49.634Z,39.47
2023-04-22T17:50:16.202Z,39.99
2023-04-22T17:52:43.568Z,39.65
2023-04-22T17:55:10.519Z,40.05
2023-04-22T17:57:36.944Z,40.15
2023-04-22T18:00:04.090Z,40.65
2023-04-22T18:02:30.793Z,40.81
2023-04-22T18:04:57.451Z,41.10
2023-04-22T18:07:24.097Z,41.33
2023-04-22T18:09:50.716Z,41.26
2023-04-22T18:12:17.554Z,41.39
2023-04-22T18:14:44.111Z,41.23
2023-04-22T18:17:10.595Z,41.32
2023-04-22T18:19:37.056Z,41.81
2023-04-22T18:22:03.586Z,41.49
2023-04-22T18:24:30.061Z,41.89
2023-04-22T18:26:56.499Z,42.20
2023-04-22T18:29:22.978Z,42.40
2023-04-22T18:31:49.531Z,42.34
2023-04-22T18:34:16.076Z,42.34
2023-04-22T18:36:42.572Z,42.54
2023-04-22T18:39:09.591Z,42.60
2023-04-22T18:41:38.535Z,42.79
2023-04-22T18:44:05.158Z,42.76
2023-04-22T18:46:31.826Z,42.78
2023-04-22T18:48:58.374Z,42.96
2023-04-22T18:51:24.898Z,43.05
2023-04-22T18:53:51.353Z,43.41
2023-04-22T18:56:17.886Z,43.53
2023-04-22T18:58:45.056Z,43.88
2023-04-22T19:01:11.672Z,44.06
2023-04-22T19:03:39.580Z,44.39
2023-04-22T19:06:06.887Z,44.69
2023-04-22T19:08:33.925Z,44.92
2023-04-22T19:11:01.052Z,45.59
2023-04-22T19:13:29.647Z,46.04
2023-04-22T19:15:57.204Z,45.92
2023-04-22T19:18:23.846Z,46.33
2023-04-22T19:20:50.467Z,46.43
2023-04-22T19:23:17.084Z,46.95
2023-04-22T19:25:43.609Z,47.08
2023-04-22T19:28:10.175Z,47.46
2023-04-22T19:30:36.657Z,47.12
2023-04-22T19:33:03.162Z,47.31
2023-04-22T19:35:29.809Z,47.52
2023-04-22T19:37:56.391Z,47.05
2023-04-22T19:40:23.183Z,46.67
2023-04-22T19:42:49.850Z,47.05
2023-04-22T19:45:16.333Z,47.12
2023-04-22T19:47:43.126Z,47.30
2023-04-22T19:50:10.110Z,46.92
2023-04-22T19:52:36.986Z,47.02
2023-04-22T19:55:09.308Z,47.19
2023-04-22T19:57:37.095Z,47.43
2023-04-22T20:00:07.161Z,47.07
2023-04-22T20:02:37.413Z,47.12
2023-04-22T20:05:08.289Z,47.38
2023-04-22T20:07:36.121Z,47.48
2023-04-22T20:10:05.011Z,47.61
2023-04-22T20:12:31.919Z,47.42
2023-04-22T20:14:59.984Z,47.76
2023-04-22T20:17:27.811Z,47.27
2023-04-22T20:19:55.152Z,47.71
2023-04-22T20:22:23.907Z,47.38
2023-04-22T20:25:02.406Z,48.09
2023-04-22T20:27:33.012Z,48.00
2023-04-22T20:30:04.159Z,47.84
2023-04-22T20:32:31.458Z,47.97
2023-04-22T20:34:58.904Z,48.02
2023-04-22T20:37:27.038Z,48.47
2023-04-22T20:39:54.064Z,48.86
2023-04-22T20:42:22.004Z,49.21
2023-04-22T20:44:48.480Z,48.93
2023-04-22T20:47:16.384Z,49.18
2023-04-22T20:49:43.360Z,49.43
2023-04-22T20:52:11.446Z,49.19
2023-04-22T20:54:39.191Z,48.87
2023-04-22T20:57:07.225Z,49.16
2023-04-22T20:59:34.766Z,49.37
2023-04-22T21:02:02.294Z,49.68
2023-04-22T21:04:29.833Z,49.40
2023-04-22T21:06:56.866Z,49.51
2023-04-22T21:09:27.038Z,49.51
2023-04-22T21:11:54.597Z,49.95
2023-04-22T21:14:22.340Z,50.17
2023-04-22T21:17:19.462Z,50.03
2023-04-22T21:19:50.693Z,49.94
2023-04-22T21:22:21.011Z,50.11
2023-04-22T21:24:52.188Z,50.36
2023-04-22T21:27:19.960Z,50.27
2023-04-22T21:29:47.659Z,50.33
2023-04-22T21:32:14.497Z,50.40
2023-04-22T21:34:41.321Z,50.18
2023-04-22T21:37:08.365Z,50.34
2023-04-22T21:39:35.318Z,50.56
2023-04-22T21:42:02.824Z,50.53
2023-04-22T21:44:29.836Z,50.84
2023-04-22T21:46:56.308Z,51.03
2023-04-22T21:49:23.301Z,50.63
2023-04-22T21:51:50.153Z,51.34
2023-04-22T21:54:16.737Z,50.78
2023-04-22T21:56:43.195Z,51.10
2023-04-22T21:59:09.714Z,50.98
2023-04-22T22:01:36.223Z,51.23
2023-04-22T22:04:03.433Z,51.57
2023-04-22T22:06:30.699Z,51.54
2023-04-22T22:08:57.175Z,51.73
2023-04-22T22:11:30.861Z,51.74
2023-04-22T22:13:57.901Z,51.91
2023-04-22T22:16:25.573Z,51.77
2023-04-22T22:18:52.281Z,51.98
2023-04-22T22:21:18.791Z,51.92
2023-04-22T22:23:45.307Z,52.32
2023-04-22T22:26:11.866Z,52.21
2023-04-22T22:28:38.997Z,52.43
2023-04-22T22:31:05.758Z,52.95
2023-04-22T22:33:32.226Z,53.26
2023-04-22T22:35:58.742Z,53.50
2023-04-22T22:38:25.423Z,53.59
2023-04-22T22:40:51.913Z,53.95
2023-04-22T22:43:18.334Z,54.48
2023-04-22T22:45:45.814Z,54.70
2023-04-22T22:48:12.325Z,54.83
2023-04-22T22:50:39.860Z,55.03
2023-04-22T22:53:06.389Z,55.12
2023-04-22T22:55:34.185Z,55.60
2023-04-22T22:58:00.814Z,55.75
2023-04-22T23:00:27.628Z,56.14
2023-04-22T23:02:54.390Z,56.51
2023-04-22T23:05:21.253Z,56.45
2023-04-22T23:07:47.718Z,56.82
2023-04-22T23:10:14.190Z,57.53
2023-04-22T23:12:41.115Z,57.64
2023-04-22T23:15:07.956Z,57.92
2023-04-22T23:17:35.418Z,58.03
2023-04-22T23:20:03.267Z,58.23
2023-04-22T23:22:32.037Z,58.58
2023-04-22T23:24:58.907Z,59.35
2023-04-22T23:27:25.589Z,59.45
2023-04-22T23:29:52.336Z,60.08
2023-04-22T23:32:19.908Z,60.74
2023-04-22T23:34:50.494Z,61.09
2023-04-22T23:37:18.971Z,61.90
2023-04-22T23:39:45.495Z,62.56
2023-04-22T23:42:11.962Z,63.26
2023-04-22T23:44:38.637Z,63.66
2023-04-22T23:47:05.488Z,64.27
2023-04-22T23:49:32.146Z,64.96
2023-04-22T23:51:58.845Z,65.54
2023-04-22T23:54:25.694Z,65.89
2023-04-22T23:56:52.549Z,66.97
2023-04-22T23:59:19.259Z,67.28
